Time;durP1;ratioP1;P1;durP2;ratioP2;P2;SDS_P1;SDS_P2;PMS_P1;PMS_P2;Temp;Humidity;BMP_temperature;BMP_pressure;BME280_temperature;BME280_humidity;BME280_pressure;Samples;Min_cycle;Max_cycle;Signal;HPM_P1;HPM_P2
2022/10/13 00:01:19;;;;;;;;;;;;;;;6.61;100.00;95712.84;5098832;28;19959;-66
2022/10/13 00:03:46;;;;;;;;;;;;;;;6.58;100.00;95718.41;5093259;28;19932;-65
2022/10/13 00:06:19;;;;;;;;;;;;;;;6.61;100.00;95712.03;5097969;28;20079;-66
2022/10/13 00:08:46;;;;;;;;;;;;;;;6.68;100.00;95718.91;5093962;28;19974;-66
2022/10/13 00:11:14;;;;;;;;;;;;;;;6.61;100.00;95728.38;5095446;28;20340;-66
2022/10/13 00:13:41;;;;;;;;;;;;;;;6.52;100.00;95724.31;5053077;28;20240;-66
2022/10/13 00:16:09;;;;;;;;;;;;;;;6.41;100.00;95723.00;5092131;28;19980;-65
2022/10/13 00:18:36;;;;;;;;;;;;;;;6.29;100.00;95719.28;5086494;28;19935;-65
2022/10/13 00:21:22;;;;;;;;;;;;;;;6.42;100.00;95723.81;5092237;28;19975;-64
2022/10/13 00:23:49;;;;;;;;;;;;;;;6.45;100.00;95720.84;5086193;28;20324;-65
2022/10/13 00:26:19;;;;;;;;;;;;;;;6.61;100.00;95712.03;5088826;28;20367;-65
2022/10/13 00:28:45;;;;;;;;;;;;;;;6.61;100.00;95712.03;5089176;28;20408;-65
2022/10/13 00:31:26;;;;;;;;;;;;;;;6.47;100.00;95701.56;5092008;28;19928;-65
2022/10/13 00:33:53;;;;;;;;;;;;;;;6.58;100.00;95708.03;5068270;28;19939;-65
2022/10/13 00:36:21;;;;;;;;;;;;;;;6.49;100.00;95703.97;5093766;28;19935;-65
2022/10/13 00:38:48;;;;;;;;;;;;;;;6.47;100.00;95695.59;5087094;28;19942;-65
2022/10/13 00:41:15;;;;;;;;;;;;;;;6.60;100.00;95700.09;5092566;28;20406;-65
2022/10/13 00:43:49;;;;;;;;;;;;;;;6.55;100.00;95692.88;5072205;28;19928;-65
2022/10/13 00:46:18;;;;;;;;;;;;;;;6.51;100.00;95686.47;5085217;28;19924;-66
2022/10/13 00:48:45;;;;;;;;;;;;;;;6.51;100.00;95691.66;5084415;28;19928;-66
2022/10/13 00:51:13;;;;;;;;;;;;;;;6.47;100.00;95695.59;5094302;28;20038;-66
2022/10/13 00:53:41;;;;;;;;;;;;;;;6.68;100.00;95692.19;5068328;28;20619;-66
2022/10/13 00:56:08;;;;;;;;;;;;;;;6.69;100.00;95689.41;5085574;28;19971;-66
2022/10/13 00:58:36;;;;;;;;;;;;;;;6.81;100.00;95691.53;5089127;28;20371;-66
2022/10/13 01:01:03;;;;;;;;;;;;;;;6.81;100.00;95692.31;5089159;28;20263;-66
2022/10/13 01:03:30;;;;;;;;;;;;;;;6.90;100.00;95690.41;5092526;28;19932;-66
2022/10/13 01:05:59;;;;;;;;;;;;;;;6.80;100.00;95687.34;5068730;28;20237;-66
2022/10/13 01:08:27;;;;;;;;;;;;;;;6.76;100.00;95693.88;5093514;28;19935;-66
2022/10/13 01:10:56;;;;;;;;;;;;;;;6.85;100.00;95692.75;5091408;28;19935;-65
2022/10/13 01:13:26;;;;;;;;;;;;;;;6.86;100.00;95684.00;5086609;28;19932;-66
2022/10/13 01:16:10;;;;;;;;;;;;;;;6.76;100.00;95686.09;5091574;28;19986;-66
2022/10/13 01:18:46;;;;;;;;;;;;;;;6.84;100.00;95680.78;5094883;28;20236;-66
2022/10/13 01:21:35;;;;;;;;;;;;;;;6.79;100.00;95683.13;5086455;28;19935;-65
2022/10/13 01:24:01;;;;;;;;;;;;;;;6.69;100.00;95683.44;5090192;28;19932;-67
2022/10/13 01:26:46;;;;;;;;;;;;;;;6.76;100.00;95688.69;5091833;28;20460;-66
2022/10/13 01:29:25;;;;;;;;;;;;;;;6.83;100.00;95676.63;5075832;28;19932;-66
2022/10/13 01:32:06;;;;;;;;;;;;;;;6.80;100.00;95682.16;5086808;28;20427;-66
2022/10/13 01:34:54;;;;;;;;;;;;;;;6.77;100.00;95675.56;5088314;28;20328;-66
2022/10/13 01:37:30;;;;;;;;;;;;;;;6.85;100.00;95667.66;5091487;28;19932;-66
2022/10/13 01:40:14;;;;;;;;;;;;;;;6.77;100.00;95672.16;5091617;28;19981;-66
2022/10/13 01:42:41;;;;;;;;;;;;;;;6.89;100.00;95670.69;5093784;28;19935;-66
2022/10/13 01:45:16;;;;;;;;;;;;;;;6.91;100.00;95671.28;5088019;28;20052;-66
2022/10/13 01:47:44;;;;;;;;;;;;;;;6.89;100.00;95678.44;5088967;28;19993;-66
2022/10/13 01:50:12;;;;;;;;;;;;;;;6.88;100.00;95677.66;5090058;28;19967;-67
2022/10/13 01:52:40;;;;;;;;;;;;;;;6.90;100.00;95669.69;5092107;28;20401;-65
2022/10/13 01:55:08;;;;;;;;;;;;;;;6.86;100.00;95668.44;5086834;28;19977;-66
2022/10/13 01:57:35;;;;;;;;;;;;;;;6.85;100.00;95666.88;5088407;28;19931;-65
2022/10/13 02:00:06;;;;;;;;;;;;;;;6.81;100.00;95665.66;5071151;28;20195;-64
2022/10/13 02:02:38;;;;;;;;;;;;;;;6.66;100.00;95669.09;5090030;28;19934;-67
2022/10/13 02:05:05;;;;;;;;;;;;;;;6.76;100.00;95673.16;5094424;28;19948;-67
2022/10/13 02:07:43;;;;;;;;;;;;;;;6.87;100.00;95670.06;5087624;28;20013;-67
2022/10/13 02:10:22;;;;;;;;;;;;;;;7.00;100.00;95670.16;5093176;28;19928;-67
2022/10/13 02:12:59;;;;;;;;;;;;;;;7.16;100.00;95679.44;5093939;28;19924;-67
2022/10/13 02:15:46;;;;;;;;;;;;;;;7.12;100.00;95672.25;5091532;28;19935;-67
2022/10/13 02:18:14;;;;;;;;;;;;;;;7.29;100.00;95673.56;5088147;28;20221;-67
2022/10/13 02:20:41;;;;;;;;;;;;;;;7.33;100.00;95673.97;5089130;28;19928;-67
2022/10/13 02:23:10;;;;;;;;;;;;;;;7.30;100.00;95680.34;5093263;28;19932;-67
2022/10/13 02:25:38;;;;;;;;;;;;;;;7.21;100.00;95676.31;5089519;28;19924;-67
2022/10/13 02:28:05;;;;;;;;;;;;;;;7.24;100.00;95671.53;5088291;28;19932;-66
2022/10/13 02:30:41;;;;;;;;;;;;;;;7.28;100.00;95666.78;5088762;28;19940;-68
2022/10/13 02:33:08;;;;;;;;;;;;;;;7.29;100.00;95668.38;5087784;28;20023;-67
2022/10/13 02:35:36;;;;;;;;;;;;;;;7.29;100.00;95663.19;5091982;28;19928;-67
2022/10/13 02:38:02;;;;;;;;;;;;;;;7.25;100.00;95661.97;5083207;28;19928;-66
2022/10/13 02:40:29;;;;;;;;;;;;;;;7.44;100.00;95661.31;5085674;28;19977;-68
2022/10/13 02:42:56;;;;;;;;;;;;;;;7.47;100.00;95655.75;5085915;28;19962;-67
2022/10/13 02:45:22;;;;;;;;;;;;;;;7.41;100.00;95656.50;5087168;28;20236;-66
2022/10/13 02:47:53;;;;;;;;;;;;;;;7.41;100.00;95656.50;5089411;28;20491;-67
2022/10/13 02:50:20;;;;;;;;;;;;;;;7.23;100.00;95658.78;5087375;28;20006;-67
2022/10/13 02:52:48;;;;;;;;;;;;;;;7.27;100.00;95655.63;5087731;28;20028;-67
2022/10/13 02:55:15;;;;;;;;;;;;;;;7.36;100.00;95653.66;5089519;28;19932;-67
2022/10/13 02:57:44;;;;;;;;;;;;;;;7.32;100.00;95647.28;5090508;28;20328;-67
2022/10/13 03:00:11;;;;;;;;;;;;;;;7.39;100.00;95652.50;5089513;28;19924;-67
2022/10/13 03:02:37;;;;;;;;;;;;;;;7.32;100.00;95647.28;5089373;28;19928;-67
2022/10/13 03:05:04;;;;;;;;;;;;;;;7.21;100.00;95646.00;5086193;28;20308;-67
2022/10/13 03:07:31;;;;;;;;;;;;;;;7.20;100.00;95653.97;5089019;28;20332;-67
2022/10/13 03:09:58;;;;;;;;;;;;;;;7.08;100.00;95651.09;5084103;28;19992;-68
2022/10/13 03:12:24;;;;;;;;;;;;;;;7.22;100.00;95644.22;5086547;28;20500;-67
2022/10/13 03:14:51;;;;;;;;;;;;;;;7.19;100.00;95639.44;5088918;28;19928;-67
2022/10/13 03:17:18;;;;;;;;;;;;;;;7.15;100.00;95635.59;5088149;28;19963;-64
2022/10/13 03:19:44;;;;;;;;;;;;;;;7.17;100.00;95638.81;5086940;28;19970;-65
2022/10/13 03:22:16;;;;;;;;;;;;;;;7.26;100.00;95638.47;5082984;28;19967;-64
2022/10/13 03:24:44;;;;;;;;;;;;;;;7.30;100.00;95644.06;5083063;28;20408;-67
2022/10/13 03:27:11;;;;;;;;;;;;;;;7.44;100.00;95650.94;5098028;28;20400;-67
2022/10/13 03:29:37;;;;;;;;;;;;;;;7.29;100.00;95652.81;5091369;28;20002;-67
2022/10/13 03:32:04;;;;;;;;;;;;;;;7.27;100.00;95655.63;5089932;28;19993;-67
2022/10/13 03:34:31;;;;;;;;;;;;;;;7.35;100.00;95651.28;5086569;28;19939;-67
2022/10/13 03:36:57;;;;;;;;;;;;;;;7.35;100.00;95651.28;5089112;28;19935;-67
2022/10/13 03:39:24;;;;;;;;;;;;;;;7.26;100.00;95654.00;5086064;28;20023;-65
2022/10/13 03:41:51;;;;;;;;;;;;;;;7.34;100.00;95647.88;5099631;28;20764;-67
2022/10/13 03:44:17;;;;;;;;;;;;;;;7.27;100.00;95650.44;5084683;28;19928;-67
2022/10/13 03:46:44;;;;;;;;;;;;;;;7.35;100.00;95641.72;5090843;28;20421;-66
2022/10/13 03:49:11;;;;;;;;;;;;;;;7.39;100.00;95648.09;5091405;28;20035;-66
2022/10/13 03:51:38;;;;;;;;;;;;;;;7.41;100.00;95651.31;5083092;28;19932;-65
2022/10/13 03:54:05;;;;;;;;;;;;;;;7.51;100.00;95644.97;5084644;28;19934;-65
2022/10/13 03:56:32;;;;;;;;;;;;;;;7.59;100.00;95642.25;5086231;28;19928;-65
2022/10/13 03:58:59;;;;;;;;;;;;;;;7.56;100.00;95642.63;5080347;28;19931;-66
2022/10/13 04:01:27;;;;;;;;;;;;;;;7.63;100.00;95646.03;5085175;28;20460;-66
2022/10/13 04:03:54;;;;;;;;;;;;;;;7.70;100.00;95644.28;5093740;28;19927;-66
2022/10/13 04:06:21;;;;;;;;;;;;;;;7.69;100.00;95642.69;5088380;28;19927;-66
2022/10/13 04:08:48;;;;;;;;;;;;;;;7.80;100.00;95641.34;5095675;28;19975;-66
2022/10/13 04:11:15;;;;;;;;;;;;;;;7.80;100.00;95636.94;5090764;28;19930;-67
2022/10/13 04:13:43;;;;;;;;;;;;;;;7.68;100.00;95641.09;5086776;28;20439;-67
2022/10/13 04:16:22;;;;;;;;;;;;;;;7.75;100.00;95641.91;5092531;28;19932;-66
2022/10/13 04:18:50;;;;;;;;;;;;;;;7.74;100.00;95635.16;5094260;28;20390;-67
2022/10/13 04:21:16;;;;;;;;;;;;;;;7.69;100.00;95637.50;5095849;28;19939;-67
2022/10/13 04:23:43;;;;;;;;;;;;;;;7.72;100.00;95637.09;5094299;28;19946;-67
2022/10/13 04:26:15;;;;;;;;;;;;;;;7.75;100.00;95641.91;5096183;28;19935;-67
2022/10/13 04:28:42;;;;;;;;;;;;;;;7.88;100.00;95635.19;5090884;28;19931;-68
2022/10/13 04:31:09;;;;;;;;;;;;;;;7.72;100.00;95636.31;5083487;28;19974;-67
2022/10/13 04:33:35;;;;;;;;;;;;;;;7.85;100.00;95637.19;5092345;28;19985;-66
2022/10/13 04:36:03;;;;;;;;;;;;;;;7.69;100.00;95637.50;5090164;28;19928;-66
2022/10/13 04:38:29;;;;;;;;;;;;;;;7.62;100.00;95637.47;5090202;28;19928;-66
2022/10/13 04:40:56;;;;;;;;;;;;;;;7.47;100.00;95635.00;5089912;28;19960;-66
2022/10/13 04:43:26;;;;;;;;;;;;;;;7.50;100.00;95628.63;5089953;28;19928;-69
2022/10/13 04:45:59;;;;;;;;;;;;;;;7.60;100.00;95643.84;5086361;28;19928;-69
2022/10/13 04:48:25;;;;;;;;;;;;;;;7.66;100.00;95643.88;5095524;28;19934;-69
2022/10/13 04:51:02;;;;;;;;;;;;;;;7.65;100.00;95642.28;5088911;28;19964;-70
2022/10/13 04:53:30;;;;;;;;;;;;;;;7.50;100.00;95644.19;5090732;28;19967;-70
2022/10/13 04:55:59;;;;;;;;;;;;;;;7.52;100.00;95641.41;5091161;28;19978;-72
2022/10/13 04:58:26;;;;;;;;;;;;;;;7.58;100.00;95638.03;5072552;28;20405;-70
2022/10/13 05:00:53;;;;;;;;;;;;;;;7.66;100.00;95637.88;5088705;28;19928;-71
2022/10/13 05:03:20;;;;;;;;;;;;;;;8.16;100.00;95638.47;5089156;28;19958;-68
2022/10/13 05:05:47;;;;;;;;;;;;;;;8.03;100.00;95648.78;5091155;28;19947;-68
2022/10/13 05:08:13;;;;;;;;;;;;;;;8.01;100.00;95653.38;5089689;28;20000;-69
2022/10/13 05:10:40;;;;;;;;;;;;;;;8.07;100.00;95655.22;5088439;28;19976;-69
2022/10/13 05:13:07;;;;;;;;;;;;;;;8.10;100.00;95649.63;5090399;28;20030;-69
2022/10/13 05:15:33;;;;;;;;;;;;;;;8.13;100.00;95654.41;5088044;28;20020;-68
2022/10/13 05:18:00;;;;;;;;;;;;;;;8.12;100.00;95658.03;5091559;28;20486;-68
2022/10/13 05:20:27;;;;;;;;;;;;;;;8.14;100.00;95661.22;5084788;28;19928;-68
2022/10/13 05:22:53;;;;;;;;;;;;;;;8.29;100.00;95668.06;5092496;28;19932;-68
2022/10/13 05:25:20;;;;;;;;;;;;;;;8.32;100.00;95662.44;5094941;28;19930;-68
2022/10/13 05:27:46;;;;;;;;;;;;;;;8.35;100.00;95662.06;5094115;28;19935;-68
2022/10/13 05:30:13;;;;;;;;;;;;;;;8.39;100.00;95663.28;5087871;28;20122;-68
2022/10/13 05:32:40;;;;;;;;;;;;;;;8.39;100.00;95663.28;5091992;28;20019;-69
2022/10/13 05:35:07;;;;;;;;;;;;;;;8.61;100.00;95667.34;5093726;28;19928;-69
2022/10/13 05:37:38;;;;;;;;;;;;;;;8.63;100.00;95671.56;5090149;28;19924;-68
2022/10/13 05:40:06;;;;;;;;;;;;;;;8.63;100.00;95671.56;5093260;28;19935;-68
2022/10/13 05:42:34;;;;;;;;;;;;;;;8.70;100.00;95674.97;5090433;28;19958;-68
2022/10/13 05:45:00;;;;;;;;;;;;;;;8.77;100.00;95683.56;5091482;28;20319;-68
2022/10/13 05:47:29;;;;;;;;;;;;;;;8.73;100.00;95687.53;5092566;28;19927;-68
2022/10/13 05:49:56;;;;;;;;;;;;;;;8.83;100.00;95690.56;5071876;28;21879;-68
2022/10/13 05:52:24;;;;;;;;;;;;;;;8.86;100.00;95694.53;5094842;28;20035;-69
2022/10/13 05:54:54;;;;;;;;;;;;;;;9.01;100.00;95696.97;5089781;28;19924;-68
2022/10/13 05:57:37;;;;;;;;;;;;;;;9.21;100.00;95697.75;5084998;28;20287;-68
2022/10/13 06:00:05;;;;;;;;;;;;;;;9.09;100.00;95707.16;5087847;28;19960;-68
2022/10/13 06:02:54;;;;;;;;;;;;;;;9.17;100.00;95699.16;5095540;28;19934;-69
2022/10/13 06:05:22;;;;;;;;;;;;;;;9.19;100.00;95699.75;5090604;28;19967;-68
2022/10/13 06:07:52;;;;;;;;;;;;;;;9.14;100.00;95705.53;5087783;28;19924;-68
2022/10/13 06:10:19;;;;;;;;;;;;;;;9.23;100.00;95698.34;5087171;28;20318;-68
2022/10/13 06:12:46;;;;;;;;;;;;;;;9.28;100.00;95708.94;5085770;28;20446;-69
2022/10/13 06:15:13;;;;;;;;;;;;;;;9.24;100.00;95706.94;5087834;28;19971;-68
2022/10/13 06:17:39;;;;;;;;;;;;;;;9.13;100.00;95710.97;5084063;28;20447;-68
2022/10/13 06:20:06;;;;;;;;;;;;;;;9.22;100.00;95704.56;5091321;28;19994;-67
2022/10/13 06:22:33;;;;;;;;;;;;;;;9.34;100.00;95708.13;5095919;28;19927;-67
2022/10/13 06:25:00;;;;;;;;;;;;;;;9.26;100.00;95710.97;5095948;28;19924;-67
2022/10/13 06:27:27;;;;;;;;;;;;;;;9.43;100.00;95711.34;5101784;28;19927;-68
2022/10/13 06:29:55;;;;;;;;;;;;;;;9.45;100.00;95705.94;5092718;28;19932;-67
2022/10/13 06:32:22;;;;;;;;;;;;;;;9.46;100.00;95703.13;5097762;28;19928;-66
2022/10/13 06:34:49;;;;;;;;;;;;;;;9.52;100.00;95704.13;5097510;28;20406;-65
2022/10/13 06:37:16;;;;;;;;;;;;;;;9.76;100.00;95700.88;5098634;28;19928;-67
2022/10/13 06:39:42;;;;;;;;;;;;;;;10.06;100.00;95710.00;5092333;28;20026;-66
2022/10/13 06:42:09;;;;;;;;;;;;;;;10.33;100.00;95710.72;5100051;28;20488;-68
2022/10/13 06:44:40;;;;;;;;;;;;;;;10.43;100.00;95713.69;5095367;28;19949;-67
2022/10/13 06:47:07;;;;;;;;;;;;;;;10.41;100.00;95718.31;5091391;28;19927;-68
2022/10/13 06:49:35;;;;;;;;;;;;;;;10.08;100.00;95719.22;5090071;28;20481;-65
2022/10/13 06:52:03;;;;;;;;;;;;;;;9.88;100.00;95710.66;5094219;28;20379;-64
2022/10/13 06:54:29;;;;;;;;;;;;;;;9.75;100.00;95714.09;5089748;28;19981;-63
2022/10/13 06:56:56;;;;;;;;;;;;;;;9.46;100.00;95710.16;5089087;28;20033;-70
2022/10/13 06:59:25;;;;;;;;;;;;;;;9.40;100.00;95705.75;5092801;28;19981;-70
2022/10/13 07:01:52;;;;;;;;;;;;;;;9.15;100.00;95704.56;5087562;28;19977;-70
2022/10/13 07:04:20;;;;;;;;;;;;;;;9.26;100.00;95705.75;5089546;28;20331;-71
2022/10/13 07:06:46;;;;;;;;;;;;;;;9.35;100.00;95701.94;5087957;28;19928;-71
2022/10/13 07:09:13;;;;;;;;;;;;;;;10.01;100.00;95697.63;5089206;28;19989;-68
2022/10/13 07:11:42;;;;;;;;;;;;;;;9.93;100.00;95690.81;5092811;28;20048;-68
2022/10/13 07:14:09;;;;;;;;;;;;;;;10.27;100.00;95690.69;5094383;28;19935;-69
2022/10/13 07:16:35;;;;;;;;;;;;;;;10.52;100.00;95694.19;5084763;28;19958;-69
2022/10/13 07:19:03;;;;;;;;;;;;;;;10.92;100.00;95687.16;5087776;28;19932;-69
2022/10/13 07:21:30;;;;;;;;;;;;;;;11.06;100.00;95684.22;5093618;28;19931;-69
2022/10/13 07:23:57;;;;;;;;;;;;;;;11.33;100.00;95688.44;5094966;28;19932;-69
2022/10/13 07:26:26;;;;;;;;;;;;;;;11.53;100.00;95689.03;5087518;28;20409;-68
2022/10/13 07:28:52;;;;;;;;;;;;;;;11.89;100.00;95692.69;5085650;28;19928;-70
2022/10/13 07:31:19;;;;;;;;;;;;;;;12.22;100.00;95686.31;5089161;28;19932;-69
2022/10/13 07:33:47;;;;;;;;;;;;;;;12.24;100.00;95692.13;5088051;28;20000;-67
2022/10/13 07:36:15;;;;;;;;;;;;;;;12.36;100.00;95698.19;5084190;28;20375;-69
2022/10/13 07:38:42;;;;;;;;;;;;;;;12.55;100.00;95700.75;5084929;28;20322;-70
2022/10/13 07:41:09;;;;;;;;;;;;;;;12.71;100.00;95700.16;5072625;28;20374;-69
2022/10/13 07:43:36;;;;;;;;;;;;;;;12.75;100.00;95695.28;5093257;28;19928;-70
2022/10/13 07:46:03;;;;;;;;;;;;;;;12.95;100.00;95689.75;5088779;28;19928;-70
2022/10/13 07:48:30;;;;;;;;;;;;;;;12.96;100.00;95691.34;5091979;28;20392;-70
2022/10/13 07:51:10;;;;;;;;;;;;;;;13.10;100.00;95687.50;5085235;28;19928;-71
2022/10/13 07:53:37;;;;;;;;;;;;;;;13.10;100.00;95687.50;5087542;28;20040;-70
2022/10/13 07:56:05;;;;;;;;;;;;;;;13.16;100.00;95694.47;5088684;28;20333;-69
2022/10/13 07:58:32;;;;;;;;;;;;;;;13.35;100.00;95689.94;5088151;28;20309;-69
2022/10/13 08:01:00;;;;;;;;;;;;;;;13.41;100.00;95693.47;5086697;28;19996;-69
2022/10/13 08:03:27;;;;;;;;;;;;;;;13.07;100.00;95693.19;5085711;28;19961;-69
2022/10/13 08:05:54;;;;;;;;;;;;;;;13.00;100.00;95687.28;5083098;28;19932;-70
2022/10/13 08:08:20;;;;;;;;;;;;;;;13.17;100.00;95682.97;5086090;28;19946;-69
2022/10/13 08:10:47;;;;;;;;;;;;;;;13.40;100.00;95681.44;5081996;28;19965;-69
2022/10/13 08:13:14;;;;;;;;;;;;;;;13.70;100.00;95685.72;5084887;28;19920;-69
2022/10/13 08:15:41;;;;;;;;;;;;;;;13.98;100.00;95686.84;5083189;28;20320;-70
2022/10/13 08:18:08;;;;;;;;;;;;;;;13.84;100.00;95681.84;5083678;28;19959;-70
2022/10/13 08:20:38;;;;;;;;;;;;;;;13.93;100.00;95685.69;5061501;28;19932;-69
2022/10/13 08:23:09;;;;;;;;;;;;;;;14.08;100.00;95676.56;5090806;28;19931;-70
2022/10/13 08:25:42;;;;;;;;;;;;;;;14.64;100.00;95680.28;5083156;28;19928;-70
2022/10/13 08:28:16;;;;;;;;;;;;;;;14.94;100.00;95678.41;5092231;28;19974;-69
2022/10/13 08:30:43;;;;;;;;;;;;;;;15.19;100.00;95680.63;5090120;28;19967;-68
2022/10/13 08:33:10;;;;;;;;;;;;;;;15.31;100.00;95668.22;5093099;28;19932;-68
2022/10/13 08:35:37;;;;;;;;;;;;;;;15.58;100.00;95672.81;5082781;28;19928;-66
2022/10/13 08:38:04;;;;;;;;;;;;;;;15.99;100.00;95673.34;5087448;28;19985;-68
2022/10/13 08:40:31;;;;;;;;;;;;;;;15.97;100.00;95670.19;5089431;28;20321;-63
2022/10/13 08:42:58;;;;;;;;;;;;;;;16.30;100.00;95668.50;5090076;28;19928;-64
2022/10/13 08:45:29;;;;;;;;;;;;;;;16.32;100.00;95667.19;5088501;28;19970;-67
2022/10/13 08:48:16;;;;;;;;;;;;;;;16.41;100.00;95668.34;5086354;28;19935;-66
2022/10/13 08:50:45;;;;;;;;;;;;;;;16.62;100.00;95661.47;5088592;28;19927;-66
2022/10/13 08:53:32;;;;;;;;;;;;;;;16.92;100.00;95654.91;5083353;28;19928;-66
2022/10/13 08:56:14;;;;;;;;;;;;;;;17.15;95.92;95659.03;5085339;28;19978;-66
2022/10/13 08:58:44;;;;;;;;;;;;;;;16.89;92.68;95660.69;5086823;28;19935;-66
2022/10/13 09:01:11;;;;;;;;;;;;;;;17.19;91.83;95654.84;5084790;28;19928;-65
2022/10/13 09:03:48;;;;;;;;;;;;;;;17.49;88.62;95644.78;5092413;28;19935;-64
2022/10/13 09:06:18;;;;;;;;;;;;;;;17.49;87.09;95642.94;5088859;28;19928;-65
2022/10/13 09:08:51;;;;;;;;;;;;;;;17.38;85.34;95642.09;5091614;28;20043;-66
2022/10/13 09:11:18;;;;;;;;;;;;;;;17.56;85.29;95638.25;5088577;28;20413;-66
2022/10/13 09:13:45;;;;;;;;;;;;;;;17.38;84.44;95642.09;5084342;28;20015;-67
2022/10/13 09:16:11;;;;;;;;;;;;;;;17.28;85.71;95647.28;5085947;28;19928;-65
2022/10/13 09:18:38;;;;;;;;;;;;;;;17.24;84.49;95640.94;5085471;28;19946;-64
2022/10/13 09:21:23;;;;;;;;;;;;;;;17.71;83.03;95637.53;5089796;28;20007;-68
2022/10/13 09:23:51;;;;;;;;;;;;;;;17.83;81.89;95637.34;5089248;28;19935;-71
2022/10/13 09:26:22;;;;;;;;;;;;;;;18.51;83.31;95632.03;5094539;28;19985;-66
2022/10/13 09:28:49;;;;;;;;;;;;;;;18.76;77.15;95648.94;5094008;28;19962;-66
2022/10/13 09:31:22;;;;;;;;;;;;;;;18.64;81.64;95640.50;5088682;28;19935;-66
2022/10/13 09:33:59;;;;;;;;;;;;;;;19.10;74.03;95644.00;5084114;28;20305;-67
2022/10/13 09:36:26;;;;;;;;;;;;;;;19.39;73.68;95635.53;5089455;28;20052;-66
2022/10/13 09:39:06;;;;;;;;;;;;;;;19.72;74.78;95632.53;5087757;28;19971;-66
2022/10/13 09:41:35;;;;;;;;;;;;;;;19.92;70.43;95632.50;5093098;28;19928;-70
2022/10/13 09:44:06;;;;;;;;;;;;;;;20.05;70.17;95625.81;5093011;28;19936;-69
2022/10/13 09:46:47;;;;;;;;;;;;;;;20.33;71.10;95616.44;5084672;28;20409;-69
2022/10/13 09:49:27;;;;;;;;;;;;;;;20.53;69.86;95620.03;5093975;28;19963;-69
2022/10/13 09:51:58;;;;;;;;;;;;;;;20.72;71.89;95623.59;5087455;28;19932;-70
2022/10/13 09:54:25;;;;;;;;;;;;;;;20.48;65.96;95618.19;5089292;28;19928;-69
2022/10/13 09:56:54;;;;;;;;;;;;;;;20.49;63.86;95618.97;5087551;28;20462;-69
2022/10/13 09:59:22;;;;;;;;;;;;;;;20.61;63.89;95616.81;5089499;28;19928;-69
2022/10/13 10:01:53;;;;;;;;;;;;;;;20.69;61.96;95610.13;5085239;28;19967;-70
2022/10/13 10:04:22;;;;;;;;;;;;;;;20.99;61.46;95609.13;5089938;28;19928;-70
2022/10/13 10:06:49;;;;;;;;;;;;;;;20.99;56.71;95611.75;5088046;28;19935;-69
2022/10/13 10:09:34;;;;;;;;;;;;;;;20.91;59.54;95604.44;5088414;28;19931;-69
2022/10/13 10:12:02;;;;;;;;;;;;;;;20.92;58.48;95603.34;5087562;28;20049;-69
2022/10/13 10:14:28;;;;;;;;;;;;;;;21.05;58.19;95597.44;5091531;28;19932;-69
2022/10/13 10:17:15;;;;;;;;;;;;;;;21.26;55.71;95599.88;5093819;28;19932;-69
2022/10/13 10:19:46;;;;;;;;;;;;;;;21.39;54.90;95593.91;5088563;28;20768;-70
2022/10/13 10:22:20;;;;;;;;;;;;;;;21.33;55.74;95590.53;5088600;28;19997;-70
2022/10/13 10:25:06;;;;;;;;;;;;;;;21.65;55.61;95580.44;5087592;28;20374;-70
2022/10/13 10:27:35;;;;;;;;;;;;;;;22.00;53.01;95581.06;5093277;28;20006;-66
2022/10/13 10:30:19;;;;;;;;;;;;;;;22.17;52.15;95581.38;5082657;28;19927;-66
2022/10/13 10:32:55;;;;;;;;;;;;;;;22.15;50.59;95583.53;5082719;28;19934;-66
2022/10/13 10:35:32;;;;;;;;;;;;;;;20.61;53.46;95579.75;5086926;28;19951;-66
2022/10/13 10:38:05;;;;;;;;;;;;;;;19.75;55.98;95569.38;5089110;28;19938;-65
2022/10/13 10:40:36;;;;;;;;;;;;;;;20.27;58.94;95564.59;5092586;28;19931;-66
2022/10/13 10:43:21;;;;;;;;;;;;;;;20.85;55.03;95560.50;5086371;28;19928;-67
2022/10/13 10:45:48;;;;;;;;;;;;;;;21.51;51.30;95559.09;5091789;28;20038;-65
2022/10/13 10:48:21;;;;;;;;;;;;;;;22.15;49.80;95557.00;5090874;28;20393;-65
2022/10/13 10:50:49;;;;;;;;;;;;;;;22.46;51.30;95556.59;5088288;28;19932;-68
2022/10/13 10:53:39;;;;;;;;;;;;;;;22.57;48.56;95547.38;5083552;28;20030;-66
2022/10/13 10:56:24;;;;;;;;;;;;;;;22.33;48.66;95556.22;5077668;28;20023;-68
2022/10/13 10:59:13;;;;;;;;;;;;;;;22.91;46.97;95546.31;5089307;28;20233;-69
2022/10/13 11:01:50;;;;;;;;;;;;;;;23.33;47.53;95541.84;5085003;28;19975;-68
2022/10/13 11:04:19;;;;;;;;;;;;;;;23.43;44.93;95543.56;5086481;28;19924;-69
2022/10/13 11:06:46;;;;;;;;;;;;;;;23.01;46.67;95532.84;5093477;28;19928;-68
2022/10/13 11:09:12;;;;;;;;;;;;;;;23.31;45.62;95538.72;5091136;28;19935;-68
2022/10/13 11:11:41;;;;;;;;;;;;;;;23.47;45.68;95526.69;5087442;28;20035;-68
2022/10/13 11:14:10;;;;;;;;;;;;;;;23.61;43.98;95520.59;5082464;28;19935;-68
2022/10/13 11:16:57;;;;;;;;;;;;;;;23.95;44.68;95514.06;5091209;28;19928;-68
2022/10/13 11:19:34;;;;;;;;;;;;;;;23.94;43.83;95512.50;5087205;28;20477;-68
2022/10/13 11:22:01;;;;;;;;;;;;;;;24.35;43.32;95506.28;5091348;28;19928;-68
2022/10/13 11:24:38;;;;;;;;;;;;;;;23.66;42.07;95509.88;5089510;28;20413;-69
2022/10/13 11:27:12;;;;;;;;;;;;;;;22.23;46.09;95495.31;5090528;28;19928;-68
2022/10/13 11:29:42;;;;;;;;;;;;;;;23.02;45.26;95491.91;5091743;28;20372;-69
2022/10/13 11:32:23;;;;;;;;;;;;;;;23.38;43.60;95495.81;5096280;28;19986;-69
2022/10/13 11:35:05;;;;;;;;;;;;;;;24.16;44.35;95499.22;5090085;28;20485;-69
2022/10/13 11:37:42;;;;;;;;;;;;;;;24.50;40.84;95487.25;5085578;28;19928;-69
2022/10/13 11:40:39;;;;;;;;;;;;;;;24.79;41.92;95483.38;5091308;28;19980;-68
2022/10/13 11:43:11;;;;;;;;;;;;;;;24.57;39.11;95481.53;5087883;28;20301;-68
2022/10/13 11:45:48;;;;;;;;;;;;;;;24.61;39.48;95477.16;5088894;28;19935;-68
2022/10/13 11:48:35;;;;;;;;;;;;;;;24.66;40.46;95466.38;5090779;28;20012;-64
2022/10/13 11:51:02;;;;;;;;;;;;;;;24.81;39.53;95459.88;5092479;28;20019;-69
2022/10/13 11:53:39;;;;;;;;;;;;;;;24.84;40.88;95467.25;5103628;28;20478;-70
2022/10/13 11:56:17;;;;;;;;;;;;;;;24.82;40.87;95461.47;5110809;28;19935;-69
2022/10/13 11:58:43;;;;;;;;;;;;;;;25.04;39.11;95462.50;5101436;28;19985;-72
2022/10/13 12:01:12;;;;;;;;;;;;;;;24.99;37.71;95456.22;5082188;28;20233;-70
2022/10/13 12:03:39;;;;;;;;;;;;;;;24.99;38.90;95453.56;5099799;28;19920;-69
2022/10/13 12:06:33;;;;;;;;;;;;;;;25.04;38.17;95457.94;5101599;28;19928;-70
2022/10/13 12:09:06;;;;;;;;;;;;;;;25.09;38.78;95449.81;5102149;28;19935;-70
2022/10/13 12:11:35;;;;;;;;;;;;;;;25.27;38.17;95445.34;5105949;28;19947;-71
2022/10/13 12:14:04;;;;;;;;;;;;;;;25.41;37.76;95449.78;5091609;28;19932;-64
2022/10/13 12:16:31;;;;;;;;;;;;;;;25.45;37.80;95450.75;5102463;28;19925;-71
2022/10/13 12:19:26;;;;;;;;;;;;;;;25.42;36.87;95451.34;5090054;28;20433;-68
2022/10/13 12:21:56;;;;;;;;;;;;;;;25.48;37.74;95445.56;5071580;28;19928;-68
2022/10/13 12:24:24;;;;;;;;;;;;;;;25.67;36.81;95445.28;5101551;28;20405;-68
2022/10/13 12:26:51;;;;;;;;;;;;;;;25.56;35.92;95446.69;5086698;28;19928;-68
2022/10/13 12:29:19;;;;;;;;;;;;;;;24.59;37.93;95448.19;5089344;28;19928;-68
2022/10/13 12:31:47;;;;;;;;;;;;;;;23.83;38.28;95445.44;5090265;28;20009;-68
2022/10/13 12:34:24;;;;;;;;;;;;;;;24.40;38.82;95444.94;5091348;28;20397;-69
2022/10/13 12:37:14;;;;;;;;;;;;;;;24.43;37.86;95438.97;5089276;28;19974;-68
2022/10/13 12:39:42;;;;;;;;;;;;;;;23.82;37.55;95442.00;5086058;28;19936;-69
2022/10/13 12:42:12;;;;;;;;;;;;;;;22.89;39.97;95436.94;5090519;28;20694;-68
2022/10/13 12:44:39;;;;;;;;;;;;;;;23.16;39.40;95440.69;5085246;28;20005;-68
2022/10/13 12:47:26;;;;;;;;;;;;;;;23.19;38.43;95437.44;5086855;28;20491;-68
2022/10/13 12:50:14;;;;;;;;;;;;;;;23.04;39.78;95428.69;5087531;28;20442;-69
2022/10/13 12:52:41;;;;;;;;;;;;;;;23.44;39.35;95431.63;5092210;28;19931;-68
2022/10/13 12:55:12;;;;;;;;;;;;;;;23.71;38.88;95429.19;5094038;28;20408;-69
2022/10/13 12:57:40;;;;;;;;;;;;;;;23.90;38.86;95419.22;5093350;28;19971;-69
2022/10/13 13:00:19;;;;;;;;;;;;;;;23.88;38.53;95420.59;5088883;28;19928;-68
2022/10/13 13:02:54;;;;;;;;;;;;;;;24.05;38.16;95426.81;5087992;28;19959;-68